createdAt,value
2017-03-04T00:00:48.007Z,4.75
2017-03-04T00:01:48.009Z,4.87
2017-03-04T00:02:48.043Z,4.87
2017-03-04T00:03:48.076Z,4.88
2017-03-04T00:04:48.097Z,4.92
2017-03-04T00:05:48.127Z,4.88
2017-03-04T00:06:48.200Z,4.84
2017-03-04T00:07:48.184Z,4.9
2017-03-04T00:08:48.219Z,4.92
2017-03-04T00:09:48.245Z,4.9
2017-03-04T00:10:48.266Z,4.87
2017-03-04T00:11:48.328Z,4.94
2017-03-04T00:12:48.314Z,4.97
2017-03-04T00:13:48.344Z,4.98
2017-03-04T00:14:48.379Z,4.9
2017-03-04T00:15:48.395Z,4.88
2017-03-04T00:16:48.408Z,4.84
2017-03-04T00:17:48.445Z,4.92
2017-03-04T00:18:48.485Z,4.84
2017-03-04T00:19:48.502Z,4.84
2017-03-04T00:20:48.541Z,4.9
2017-03-04T00:21:48.555Z,4.84
2017-03-04T00:22:48.597Z,4.87
2017-03-04T00:23:48.609Z,4.84
2017-03-04T00:24:48.646Z,4.74
2017-03-04T00:25:48.677Z,4.78
2017-03-04T00:26:48.676Z,4.88
2017-03-04T00:27:48.738Z,4.76
2017-03-04T00:28:48.746Z,4.84
2017-03-04T00:29:48.768Z,4.79
2017-03-04T00:30:48.842Z,4.9
2017-03-04T00:31:48.809Z,4.75
2017-03-04T00:32:48.860Z,4.83
2017-03-04T00:33:48.888Z,4.85
2017-03-04T00:34:48.914Z,4.78
2017-03-04T00:35:48.946Z,4.78
2017-03-04T00:36:48.970Z,4.87
2017-03-04T00:37:48.997Z,4.79
2017-03-04T00:38:49.000Z,4.83
2017-03-04T00:39:49.046Z,4.83
2017-03-04T00:40:49.070Z,4.76
2017-03-04T00:41:49.137Z,4.75
2017-03-04T00:42:49.149Z,4.69
2017-03-04T00:43:49.164Z,4.69
2017-03-04T00:44:49.184Z,4.64
2017-03-04T00:45:49.227Z,4.58
2017-03-04T00:46:49.252Z,4.56
2017-03-04T00:47:49.267Z,4.46
2017-03-04T00:48:49.315Z,4.35
2017-03-04T00:49:49.317Z,4.38
2017-03-04T00:50:49.367Z,4.4
2017-03-04T00:51:49.362Z,4.38
2017-03-04T00:52:49.404Z,4.4
2017-03-04T00:53:49.419Z,4.29
2017-03-04T00:54:49.463Z,4.15
2017-03-04T00:55:49.482Z,4.2
2017-03-04T00:56:49.500Z,4.22
2017-03-04T00:57:49.548Z,4.21
2017-03-04T00:58:49.567Z,4.17
2017-03-04T00:59:49.576Z,4.21
2017-03-04T01:00:49.604Z,4.24
2017-03-04T01:01:49.691Z,4.33
2017-03-04T01:02:49.674Z,4.28
2017-03-04T01:03:49.698Z,4.28
2017-03-04T01:04:49.714Z,4.29
2017-03-04T01:05:49.772Z,4.21
2017-03-04T01:06:49.786Z,4.21
2017-03-04T01:07:49.813Z,4.17
2017-03-04T01:08:49.846Z,4.14
2017-03-04T01:09:49.870Z,4.12
2017-03-04T01:10:49.895Z,4.07
2017-03-04T01:11:49.918Z,4.02
2017-03-04T01:12:49.927Z,4
2017-03-04T01:13:49.970Z,3.97
2017-03-04T01:14:50.001Z,3.93
2017-03-04T01:15:50.015Z,4.04
2017-03-04T01:16:50.045Z,4.08
2017-03-04T01:17:50.088Z,4.1
2017-03-04T01:18:50.132Z,4.04
2017-03-04T01:19:50.136Z,4.11
2017-03-04T01:20:50.179Z,4.04
2017-03-04T01:21:50.187Z,4.02
2017-03-04T01:22:50.213Z,3.94
2017-03-04T01:23:50.254Z,3.96
2017-03-04T01:24:50.249Z,3.99
2017-03-04T01:25:50.300Z,3.97
2017-03-04T01:26:50.320Z,4
2017-03-04T01:27:50.363Z,3.94
2017-03-04T01:28:50.383Z,3.97
2017-03-04T01:29:50.409Z,4.08
2017-03-04T01:30:50.434Z,4.04
2017-03-04T01:31:50.442Z,4.11
2017-03-04T01:32:50.478Z,4.04
2017-03-04T01:33:50.515Z,4.03
2017-03-04T01:34:50.545Z,4.14
2017-03-04T01:35:50.570Z,4.15
2017-03-04T01:36:50.604Z,4.18
2017-03-04T01:37:50.604Z,4.17
2017-03-04T01:38:50.668Z,4.12
2017-03-04T01:39:50.680Z,4.08
2017-03-04T01:40:50.714Z,4.15
2017-03-04T01:41:50.711Z,4.2
2017-03-04T01:42:50.749Z,4.17
2017-03-04T01:43:50.784Z,4.12
2017-03-04T01:44:50.808Z,4.04
2017-03-04T01:45:50.829Z,4.03
2017-03-04T01:46:50.865Z,3.94
2017-03-04T01:47:50.896Z,3.97
2017-03-04T01:48:50.913Z,3.84
2017-03-04T01:49:50.947Z,3.93
2017-03-04T01:50:50.964Z,3.89
2017-03-04T01:51:50.993Z,3.89
2017-03-04T01:52:51.019Z,3.93
2017-03-04T01:53:51.050Z,3.92
2017-03-04T01:54:51.072Z,3.93
2017-03-04T01:55:51.101Z,4.02
2017-03-04T01:56:51.126Z,3.9
2017-03-04T01:57:51.152Z,3.92
2017-03-04T01:58:51.183Z,3.92
2017-03-04T01:59:51.209Z,3.85
2017-03-04T02:00:51.315Z,3.93
2017-03-04T02:01:51.293Z,3.86
2017-03-04T02:02:51.273Z,3.81
2017-03-04T02:03:51.317Z,3.81
2017-03-04T02:04:51.340Z,3.76
2017-03-04T02:05:51.375Z,3.76
2017-03-04T02:06:51.395Z,3.76
2017-03-04T02:07:51.416Z,3.76
2017-03-04T02:08:51.446Z,3.72
2017-03-04T02:09:51.487Z,3.76
2017-03-04T02:10:51.505Z,3.75
2017-03-04T02:11:51.529Z,3.74
2017-03-04T02:12:51.549Z,3.81
2017-03-04T02:13:51.580Z,3.72
2017-03-04T02:14:51.612Z,3.74
2017-03-04T02:15:51.622Z,3.72
2017-03-04T02:16:51.682Z,3.76
2017-03-04T02:17:51.692Z,3.72
2017-03-04T02:18:51.715Z,3.81
2017-03-04T02:19:51.742Z,3.72
2017-03-04T02:20:51.777Z,3.72
2017-03-04T02:21:51.809Z,3.67
2017-03-04T02:22:51.827Z,3.69
2017-03-04T02:23:51.849Z,3.66
2017-03-04T02:24:51.869Z,3.63
2017-03-04T02:25:51.915Z,3.67
2017-03-04T02:26:51.951Z,3.69
2017-03-04T02:27:51.965Z,3.66
2017-03-04T02:28:51.998Z,3.61
2017-03-04T02:29:52.019Z,3.64
2017-03-04T02:30:52.036Z,3.67
2017-03-04T02:31:52.062Z,3.69
2017-03-04T02:32:52.097Z,3.71
2017-03-04T02:33:52.118Z,3.74
2017-03-04T02:34:52.140Z,3.81
2017-03-04T02:35:52.170Z,3.85
2017-03-04T02:36:52.201Z,3.9
2017-03-04T02:37:52.257Z,3.86
2017-03-04T02:38:52.256Z,3.86
2017-03-04T02:39:52.303Z,3.94
2017-03-04T02:40:52.301Z,4.02
2017-03-04T02:41:52.334Z,4.12
2017-03-04T02:42:52.358Z,4.1
2017-03-04T02:43:52.356Z,4.14
2017-03-04T02:44:52.409Z,4.2
2017-03-04T02:45:52.447Z,4.18
2017-03-04T02:46:52.468Z,4.21
2017-03-04T02:47:52.492Z,4.24
2017-03-04T02:48:52.501Z,4.36
2017-03-04T02:49:52.552Z,4.35
2017-03-04T02:50:52.580Z,4.38
2017-03-04T02:51:52.612Z,4.46
2017-03-04T02:52:52.632Z,4.48
2017-03-04T02:53:52.639Z,4.5
2017-03-04T02:54:52.680Z,4.58
2017-03-04T02:55:52.721Z,4.51
2017-03-04T02:56:52.758Z,4.48
2017-03-04T02:57:52.791Z,4.54
2017-03-04T02:58:52.768Z,4.51
2017-03-04T02:59:52.812Z,4.53
2017-03-04T03:00:52.837Z,4.5
2017-03-04T03:01:52.873Z,4.46
2017-03-04T03:02:52.894Z,4.48
2017-03-04T03:03:52.953Z,4.46
2017-03-04T03:04:52.940Z,4.39
2017-03-04T03:05:52.965Z,4.38
2017-03-04T03:06:52.982Z,4.33
2017-03-04T03:07:53.023Z,4.33
2017-03-04T03:08:53.052Z,4.28
2017-03-04T03:09:53.086Z,4.24
2017-03-04T03:10:53.115Z,4.18
2017-03-04T03:11:53.140Z,4.17
2017-03-04T03:12:53.184Z,4.1
2017-03-04T03:13:53.214Z,4.04
2017-03-04T03:14:53.223Z,4.12
2017-03-04T03:15:53.248Z,4.08
2017-03-04T03:16:53.254Z,3.99
2017-03-04T03:17:53.313Z,4.07
2017-03-04T03:18:53.322Z,4.02
2017-03-04T03:19:53.354Z,3.92
2017-03-04T03:20:53.377Z,3.93
2017-03-04T03:21:53.381Z,3.86
2017-03-04T03:22:53.425Z,3.9
2017-03-04T03:23:53.459Z,3.96
2017-03-04T03:24:53.481Z,3.94
2017-03-04T03:25:53.491Z,3.92
2017-03-04T03:26:53.537Z,3.9
2017-03-04T03:27:53.570Z,3.97
2017-03-04T03:28:53.588Z,3.86
2017-03-04T03:29:53.613Z,3.81
2017-03-04T03:30:53.644Z,3.84
2017-03-04T03:31:53.662Z,3.74
2017-03-04T03:32:53.696Z,3.75
2017-03-04T03:33:53.735Z,3.69
2017-03-04T03:34:53.732Z,3.69
2017-03-04T03:35:53.777Z,3.67
2017-03-04T03:36:53.797Z,3.71
2017-03-04T03:37:53.895Z,3.69
2017-03-04T03:38:53.847Z,3.66
2017-03-04T03:39:53.887Z,3.61
2017-03-04T03:40:53.891Z,3.66
2017-03-04T03:41:53.932Z,3.57
2017-03-04T03:42:53.983Z,3.63
2017-03-04T03:43:53.986Z,3.63
2017-03-04T03:44:54.029Z,3.69
2017-03-04T03:45:54.036Z,3.64
2017-03-04T03:46:54.054Z,3.67
2017-03-04T03:47:54.096Z,3.69
2017-03-04T03:48:54.172Z,3.78
2017-03-04T03:49:54.151Z,3.82
2017-03-04T03:50:54.178Z,3.72
2017-03-04T03:51:54.192Z,3.71
2017-03-04T03:52:54.237Z,3.75
2017-03-04T03:53:54.253Z,3.84
2017-03-04T03:54:55.458Z,3.81
2017-03-04T03:55:54.292Z,3.76
2017-03-04T03:56:54.332Z,3.75
2017-03-04T03:57:54.368Z,3.78
2017-03-04T03:58:54.385Z,3.69
2017-03-04T03:59:54.570Z,3.75
2017-03-04T04:00:54.455Z,3.76
2017-03-04T04:01:54.458Z,3.63
2017-03-04T04:02:54.503Z,3.75
2017-03-04T04:03:54.524Z,3.67
2017-03-04T04:04:54.551Z,3.67
2017-03-04T04:05:54.539Z,3.64
2017-03-04T04:06:54.598Z,3.64
2017-03-04T04:07:54.621Z,3.66
2017-03-04T04:08:54.660Z,3.64
2017-03-04T04:09:54.700Z,3.64
2017-03-04T04:10:54.690Z,3.6
2017-03-04T04:11:54.751Z,3.67
2017-03-04T04:12:54.766Z,3.66
2017-03-04T04:13:54.814Z,3.64
2017-03-04T04:14:54.811Z,3.64
2017-03-04T04:15:54.834Z,3.53
2017-03-04T04:16:54.879Z,3.51
2017-03-04T04:17:54.909Z,3.51
2017-03-04T04:18:54.917Z,3.48
2017-03-04T04:19:54.934Z,3.49
2017-03-04T04:20:54.971Z,3.49
2017-03-04T04:21:54.997Z,3.46
2017-03-04T04:22:55.030Z,3.46
2017-03-04T04:23:55.056Z,3.49
2017-03-04T04:24:55.078Z,3.4
2017-03-04T04:25:55.107Z,3.37
2017-03-04T04:26:55.133Z,3.4
2017-03-04T04:27:55.189Z,3.34
2017-03-04T04:28:55.175Z,3.37
2017-03-04T04:29:55.190Z,3.29
2017-03-04T04:30:55.306Z,3.26
2017-03-04T04:31:55.265Z,3.24
2017-03-04T04:32:55.294Z,3.3
2017-03-04T04:33:55.303Z,3.21
2017-03-04T04:34:55.359Z,3.2
2017-03-04T04:35:55.370Z,3.14
2017-03-04T04:36:55.395Z,3.14
2017-03-04T04:37:55.425Z,3.17
2017-03-04T04:38:55.446Z,3.23
2017-03-04T04:39:55.473Z,3.2
2017-03-04T04:41:04.970Z,3.17
2017-03-04T04:41:55.874Z,3.2
2017-03-04T04:42:55.898Z,3.24
2017-03-04T04:43:55.903Z,3.21
2017-03-04T04:44:55.949Z,3.19
2017-03-04T04:45:55.973Z,3.19
2017-03-04T04:46:55.991Z,3.13
2017-03-04T04:47:56.029Z,3.14
2017-03-04T04:48:56.053Z,3.2
2017-03-04T04:49:56.079Z,3.14
2017-03-04T04:50:56.109Z,3.16
2017-03-04T04:51:56.109Z,3.13
2017-03-04T04:52:56.163Z,3.17
2017-03-04T04:53:56.171Z,3.09
2017-03-04T04:54:56.225Z,3.14
2017-03-04T04:55:56.239Z,3.19
2017-03-04T04:56:56.270Z,3.21
2017-03-04T04:57:56.298Z,3.16
2017-03-04T04:58:56.307Z,3.17
2017-03-04T04:59:56.344Z,3.19
2017-03-04T05:00:56.371Z,3.13
2017-03-04T05:01:56.405Z,3.09
2017-03-04T05:02:56.420Z,3.13
2017-03-04T05:03:56.469Z,3.08
2017-03-04T05:04:56.478Z,3.06
2017-03-04T05:05:56.507Z,3.09
2017-03-04T05:06:56.534Z,3.14
2017-03-04T05:07:56.555Z,3.08
2017-03-04T05:08:56.587Z,3.13
2017-03-04T05:09:56.607Z,3.03
2017-03-04T05:10:56.644Z,3.09
2017-03-04T05:11:56.664Z,3.09
2017-03-04T05:12:56.670Z,2.99
2017-03-04T05:13:56.732Z,3.11
2017-03-04T05:14:56.721Z,2.99
2017-03-04T05:15:56.778Z,2.98
2017-03-04T05:16:56.800Z,2.98
2017-03-04T05:17:56.805Z,2.99
2017-03-04T05:18:56.850Z,2.91
2017-03-04T05:19:56.871Z,2.91
2017-03-04T05:20:56.898Z,2.9
2017-03-04T05:21:56.941Z,2.99
2017-03-04T05:22:56.932Z,2.98
2017-03-04T05:23:56.991Z,2.99
2017-03-04T05:24:57.007Z,3.02
2017-03-04T05:25:57.039Z,3.01
2017-03-04T05:26:57.057Z,3.01
2017-03-04T05:27:57.165Z,2.91
2017-03-04T05:28:57.109Z,2.9
2017-03-04T05:29:57.140Z,2.96
2017-03-04T05:30:57.169Z,2.87
2017-03-04T05:31:57.209Z,3.03
2017-03-04T05:32:57.212Z,2.96
2017-03-04T05:33:57.269Z,2.95
2017-03-04T05:34:57.271Z,2.95
2017-03-04T05:35:57.283Z,2.93
2017-03-04T05:36:57.324Z,2.95
2017-03-04T05:37:57.333Z,2.96
2017-03-04T05:38:57.378Z,2.96
2017-03-04T05:39:57.403Z,2.99
2017-03-04T05:40:57.428Z,2.96
2017-03-04T05:41:57.459Z,2.96
2017-03-04T05:42:57.475Z,3.03
2017-03-04T05:43:57.507Z,2.98
2017-03-04T05:44:57.545Z,2.96
2017-03-04T05:45:57.572Z,2.93
2017-03-04T05:46:57.585Z,2.96
2017-03-04T05:47:57.608Z,3.01
2017-03-04T05:48:57.642Z,2.95
2017-03-04T05:49:57.663Z,2.98
2017-03-04T05:50:57.679Z,3.01
2017-03-04T05:51:57.689Z,2.87
2017-03-04T05:52:57.748Z,2.91
2017-03-04T05:53:57.771Z,2.88
2017-03-04T05:54:57.775Z,2.88
2017-03-04T05:55:57.798Z,2.88
2017-03-04T05:56:57.803Z,2.88
2017-03-04T05:57:57.874Z,2.96
2017-03-04T05:58:57.908Z,2.99
2017-03-04T05:59:57.935Z,3.01
2017-03-04T06:00:57.925Z,2.98
2017-03-04T06:01:57.984Z,2.99
2017-03-04T06:02:58.009Z,3.02
2017-03-04T06:03:58.030Z,3.03
2017-03-04T06:04:58.056Z,2.95
2017-03-04T06:05:58.080Z,3.02
2017-03-04T06:06:58.125Z,2.99
2017-03-04T06:07:58.141Z,3.03
2017-03-04T06:08:58.172Z,3.06
2017-03-04T06:09:58.198Z,3.02
2017-03-04T06:10:58.206Z,2.95
2017-03-04T06:11:58.247Z,2.96
2017-03-04T06:12:58.267Z,3.08
2017-03-04T06:13:58.275Z,3.09
2017-03-04T06:14:58.313Z,3.09
2017-03-04T06:15:58.358Z,3.11
2017-03-04T06:16:58.374Z,3.14
2017-03-04T06:17:58.415Z,3.11
2017-03-04T06:18:58.421Z,3.21
2017-03-04T06:19:58.448Z,3.19
2017-03-04T06:20:58.483Z,3.19
2017-03-04T06:21:58.500Z,3.21
2017-03-04T06:22:58.538Z,3.14
2017-03-04T06:23:58.548Z,3.21
2017-03-04T06:24:58.576Z,3.26
2017-03-04T06:25:58.608Z,3.3
2017-03-04T06:26:58.614Z,3.35
2017-03-04T06:27:58.659Z,3.29
2017-03-04T06:28:58.683Z,3.34
2017-03-04T06:29:58.714Z,3.43
2017-03-04T06:30:58.726Z,3.43
2017-03-04T06:31:58.770Z,3.51
2017-03-04T06:32:58.790Z,3.54
2017-03-04T06:33:58.812Z,3.54
2017-03-04T06:34:58.841Z,3.56
2017-03-04T06:35:58.870Z,3.63
2017-03-04T06:36:58.923Z,3.67
2017-03-04T06:37:58.938Z,3.72
2017-03-04T06:38:58.946Z,3.75
2017-03-04T06:39:59.036Z,3.69
2017-03-04T06:40:59.002Z,3.71
2017-03-04T06:41:59.016Z,3.81
2017-03-04T06:42:59.058Z,3.9
2017-03-04T06:43:59.089Z,3.9
2017-03-04T06:44:59.118Z,3.96
2017-03-04T06:45:59.143Z,4.08
2017-03-04T06:46:59.204Z,4.14
2017-03-04T06:47:59.187Z,4.22
2017-03-04T06:48:59.197Z,4.22
2017-03-04T06:49:59.238Z,4.28
2017-03-04T06:50:59.862Z,4.29
2017-03-04T06:51:59.889Z,4.29
2017-03-04T06:52:59.919Z,4.38
2017-03-04T06:53:59.959Z,4.38
2017-03-04T06:55:00.006Z,4.42
2017-03-04T06:56:00.016Z,4.51
2017-03-04T06:57:00.054Z,4.58
2017-03-04T06:58:00.064Z,4.66
2017-03-04T06:59:00.113Z,4.74
2017-03-04T07:00:00.118Z,4.78
2017-03-04T07:01:00.147Z,4.88
2017-03-04T07:02:00.385Z,4.85
2017-03-04T07:03:00.173Z,4.88
2017-03-04T07:04:00.239Z,5.03
2017-03-04T07:05:00.257Z,5.09
2017-03-04T07:06:00.287Z,5.08
2017-03-04T07:07:00.295Z,5.15
2017-03-04T07:08:00.330Z,5.2
2017-03-04T07:09:00.362Z,5.18
2017-03-04T07:10:00.560Z,5.3
2017-03-04T07:11:00.412Z,5.39
2017-03-04T07:12:00.459Z,5.42
2017-03-04T07:13:00.485Z,5.62
2017-03-04T07:14:00.472Z,5.69
2017-03-04T07:15:00.528Z,5.78
2017-03-04T07:16:00.577Z,5.87
2017-03-04T07:17:00.593Z,5.99
2017-03-04T07:18:00.613Z,6.09
2017-03-04T07:19:00.649Z,6.24
2017-03-04T07:20:00.675Z,6.28
2017-03-04T07:21:00.707Z,6.34
2017-03-04T07:22:00.709Z,6.42
2017-03-04T07:23:00.742Z,6.52
2017-03-04T07:24:00.790Z,6.58
2017-03-04T07:25:00.857Z,6.7
2017-03-04T07:26:00.884Z,6.88
2017-03-04T07:27:00.892Z,6.88
2017-03-04T07:28:00.858Z,6.91
2017-03-04T07:29:00.954Z,6.9
2017-03-04T07:30:00.998Z,6.9
2017-03-04T07:31:00.985Z,6.9
2017-03-04T07:32:01.002Z,6.91
2017-03-04T07:33:01.028Z,6.93
2017-03-04T07:34:01.070Z,6.94
2017-03-04T07:35:01.065Z,6.88
2017-03-04T07:36:01.120Z,7.09
2017-03-04T07:37:01.205Z,7.13
2017-03-04T07:38:01.155Z,7.26
2017-03-04T07:39:01.203Z,7.37
2017-03-04T07:40:01.218Z,7.67
2017-03-04T07:41:01.263Z,7.88
2017-03-04T07:42:01.297Z,8.06
2017-03-04T07:43:01.317Z,8.17
2017-03-04T07:44:01.336Z,8.26
2017-03-04T07:45:01.405Z,8.4
2017-03-04T07:46:01.404Z,8.54
2017-03-04T07:47:01.440Z,8.57
2017-03-04T07:48:01.461Z,8.77
2017-03-04T07:49:01.492Z,8.89
2017-03-04T07:50:01.522Z,9.05
2017-03-04T07:51:01.545Z,9.19
2017-03-04T07:52:01.591Z,9.14
2017-03-04T07:53:01.622Z,9.39
2017-03-04T07:54:01.617Z,9.59
2017-03-04T07:55:01.698Z,9.74
2017-03-04T07:56:01.793Z,9.85
2017-03-04T07:57:01.733Z,10
2017-03-04T07:58:01.737Z,10.05
2017-03-04T07:59:01.781Z,10.08
2017-03-04T08:00:01.810Z,10.14
2017-03-04T08:01:01.840Z,10.31
2017-03-04T08:02:02.083Z,10.57
2017-03-04T08:03:01.887Z,10.69
2017-03-04T08:04:01.919Z,10.76
2017-03-04T08:05:02.045Z,11
2017-03-04T08:06:01.993Z,11.31
2017-03-04T08:07:02.090Z,11.48
2017-03-04T08:08:02.084Z,11.7
2017-03-04T08:09:02.081Z,11.84
2017-03-04T08:10:02.121Z,11.86
2017-03-04T08:11:02.156Z,11.7
2017-03-04T08:12:02.188Z,11.73
2017-03-04T08:13:02.205Z,11.53
2017-03-04T08:14:02.263Z,11.45
2017-03-04T08:15:02.261Z,11.35
2017-03-04T08:16:02.287Z,11.33
2017-03-04T08:17:02.348Z,11.48
2017-03-04T08:18:02.377Z,11.61
2017-03-04T08:19:02.412Z,11.75
2017-03-04T08:20:02.637Z,11.82
2017-03-04T08:21:02.465Z,11.81
2017-03-04T08:22:02.496Z,12.1
2017-03-04T08:23:02.554Z,12.43
2017-03-04T08:24:02.564Z,12.73
2017-03-04T08:25:02.713Z,12.84
2017-03-04T08:26:02.635Z,12.86
2017-03-04T08:27:02.631Z,12.99
2017-03-04T08:28:02.716Z,13.09
2017-03-04T08:29:02.746Z,13.11
2017-03-04T08:30:02.860Z,13.06
2017-03-04T08:31:02.786Z,13.09
2017-03-04T08:32:02.788Z,13.13
2017-03-04T08:33:02.866Z,13.2
2017-03-04T08:34:02.887Z,13.65
2017-03-04T08:35:02.915Z,13.86
2017-03-04T08:36:02.933Z,14.21
2017-03-04T08:37:03.006Z,14.67
2017-03-04T08:38:02.998Z,14.97
2017-03-04T08:39:03.038Z,14.94
2017-03-04T08:40:03.075Z,15.16
2017-03-04T08:41:03.103Z,15.2
2017-03-04T08:42:03.156Z,15.49
2017-03-04T08:43:03.199Z,15.41
2017-03-04T08:44:03.237Z,15.56
2017-03-04T08:45:03.247Z,15.74
2017-03-04T08:46:03.285Z,16.13
2017-03-04T08:47:03.302Z,16.47
2017-03-04T08:48:03.339Z,16.87
2017-03-04T08:49:03.363Z,16.92
2017-03-04T08:50:03.422Z,17.35
2017-03-04T08:51:03.466Z,17.6
2017-03-04T08:52:03.483Z,17.57
2017-03-04T08:53:03.539Z,17.55
2017-03-04T08:54:03.589Z,17.58
2017-03-04T08:55:03.640Z,17.6
2017-03-04T08:56:03.653Z,17.43
2017-03-04T08:57:03.697Z,17.21
2017-03-04T08:58:03.746Z,17.2
2017-03-04T08:59:03.775Z,17.3
2017-03-04T09:00:03.781Z,17.54
2017-03-04T09:01:03.817Z,17.63
2017-03-04T09:02:03.867Z,17.68
2017-03-04T09:03:03.931Z,17.8
2017-03-04T09:04:03.913Z,18.24
2017-03-04T09:05:04.181Z,18.65
2017-03-04T09:06:04.022Z,18.75
2017-03-04T09:07:04.049Z,18.78
2017-03-04T09:08:04.090Z,18.81
2017-03-04T09:09:04.118Z,18.82
2017-03-04T09:10:04.281Z,18.81
2017-03-04T09:11:04.223Z,18.91
2017-03-04T09:12:04.241Z,18.97
2017-03-04T09:13:04.291Z,18.89
2017-03-04T09:14:04.320Z,18.89
2017-03-04T09:15:04.377Z,19.2
2017-03-04T09:16:04.393Z,19.52
2017-03-04T09:17:04.422Z,19.79
2017-03-04T09:18:04.516Z,20.02
2017-03-04T09:19:04.520Z,20.16
2017-03-04T09:20:04.636Z,20.54
2017-03-04T09:21:04.600Z,20.54
2017-03-04T09:22:04.678Z,20.76
2017-03-04T09:23:04.650Z,20.88
2017-03-04T09:24:04.739Z,20.9
2017-03-04T09:25:04.947Z,21.23
2017-03-04T09:26:04.774Z,21.41
2017-03-04T09:27:04.805Z,21.67
2017-03-04T09:28:04.857Z,21.92
2017-03-04T09:29:04.910Z,21.76
2017-03-04T09:30:04.963Z,21.71
2017-03-04T09:31:04.959Z,21.74
2017-03-04T09:32:05.038Z,21.77
2017-03-04T09:33:05.050Z,21.71
2017-03-04T09:34:05.150Z,21.73
2017-03-04T09:35:05.120Z,22.18
2017-03-04T09:36:05.199Z,22.29
2017-03-04T09:37:05.216Z,22.31
2017-03-04T09:38:05.257Z,22.22
2017-03-04T09:39:05.300Z,22.02
2017-03-04T09:40:05.326Z,21.71
2017-03-04T09:41:05.378Z,21.61
2017-03-04T09:42:05.432Z,21.7
2017-03-04T09:43:05.457Z,21.83
2017-03-04T09:44:05.499Z,21.9
2017-03-04T09:45:05.603Z,21.99
2017-03-04T09:46:05.638Z,22.31
2017-03-04T09:47:05.622Z,22.64
2017-03-04T09:48:05.665Z,23.09
2017-03-04T09:49:05.735Z,23.41
2017-03-04T09:50:05.765Z,23.35
2017-03-04T09:51:06.103Z,23.32
2017-03-04T09:52:05.825Z,23.16
2017-03-04T09:53:05.844Z,23.18
2017-03-04T09:54:05.925Z,22.88
2017-03-04T09:55:05.947Z,22.85
2017-03-04T09:56:06.093Z,22.76
2017-03-04T09:57:06.040Z,22.49
2017-03-04T09:58:06.078Z,22.49
2017-03-04T09:59:06.110Z,22.61
2017-03-04T10:00:06.180Z,22.99
2017-03-04T10:01:06.352Z,23.32
2017-03-04T10:02:06.270Z,23.62
2017-03-04T10:03:06.265Z,23.79
2017-03-04T10:04:06.303Z,23.82
2017-03-04T10:05:06.404Z,23.93
2017-03-04T10:06:06.420Z,23.85
2017-03-04T10:07:06.432Z,23.62
2017-03-04T10:08:06.498Z,23.06
2017-03-04T10:09:06.524Z,22.86
2017-03-04T10:10:06.546Z,22.91
2017-03-04T10:11:06.606Z,23.38
2017-03-04T10:12:06.654Z,23.66
2017-03-04T10:13:06.695Z,23.7
2017-03-04T10:14:06.708Z,23.79
2017-03-04T10:15:06.810Z,23.96
2017-03-04T10:16:06.810Z,24.45
2017-03-04T10:17:06.855Z,24.42
2017-03-04T10:18:06.956Z,24.93
2017-03-04T10:19:06.957Z,25.01
2017-03-04T10:20:07.004Z,24.94
2017-03-04T10:21:07.030Z,24.87
2017-03-04T10:22:07.043Z,25.11
2017-03-04T10:23:07.121Z,25.19
2017-03-04T10:24:07.137Z,24.9
2017-03-04T10:25:07.162Z,24.74
2017-03-04T10:26:07.229Z,24.58
2017-03-04T10:27:07.255Z,24.51
2017-03-04T10:28:07.281Z,24.69
2017-03-04T10:29:07.321Z,24.97
2017-03-04T10:30:07.680Z,25.02
2017-03-04T10:31:07.412Z,24.66
2017-03-04T10:32:07.426Z,24.71
2017-03-04T10:33:07.492Z,24.54
2017-03-04T10:34:07.525Z,24.54
2017-03-04T10:35:07.765Z,24.58
2017-03-04T10:36:07.606Z,24.83
2017-03-04T10:37:07.650Z,24.66
2017-03-04T10:38:07.671Z,24.51
2017-03-04T10:39:07.744Z,24.46
2017-03-04T10:40:07.785Z,24.21
2017-03-04T10:41:07.799Z,24.3
2017-03-04T10:42:07.955Z,24.21
2017-03-04T10:43:07.865Z,24.46
2017-03-04T10:44:07.924Z,24.89
2017-03-04T10:45:08.535Z,25.23
2017-03-04T10:46:07.985Z,25.54
2017-03-04T10:47:08.106Z,25.79
2017-03-04T10:48:08.062Z,25.62
2017-03-04T10:49:08.126Z,25.37
2017-03-04T10:50:08.166Z,25.33
2017-03-04T10:51:08.177Z,24.93
2017-03-04T10:52:08.510Z,24.92
2017-03-04T10:53:08.278Z,25
2017-03-04T10:54:08.293Z,25.09
2017-03-04T10:55:08.338Z,25.42
2017-03-04T10:56:08.350Z,25.84
2017-03-04T10:57:08.413Z,26.32
2017-03-04T10:58:08.424Z,26.19
2017-03-04T10:59:08.495Z,25.63
2017-03-04T11:00:08.613Z,25.48
2017-03-04T11:01:08.576Z,25.42
2017-03-04T11:02:08.600Z,25.41
2017-03-04T11:03:08.623Z,25.56
2017-03-04T11:04:08.666Z,25.76
2017-03-04T11:05:08.681Z,26
2017-03-04T11:06:08.750Z,25.99
2017-03-04T11:07:08.753Z,25.66
2017-03-04T11:08:08.807Z,25.39
2017-03-04T11:09:08.851Z,25.23
2017-03-04T11:10:08.864Z,25.33
2017-03-04T11:11:09.111Z,25.49
2017-03-04T11:12:08.955Z,25.37
2017-03-04T11:13:09.001Z,25.48
2017-03-04T11:14:09.039Z,25.45
2017-03-04T11:15:09.099Z,25.64
2017-03-04T11:16:09.135Z,25.93
2017-03-04T11:17:09.157Z,25.81
2017-03-04T11:18:09.194Z,25.85
2017-03-04T11:19:09.223Z,25.91
2017-03-04T11:20:09.300Z,26
2017-03-04T11:21:09.305Z,26.01
2017-03-04T11:22:09.336Z,26.15
2017-03-04T11:23:09.371Z,25.81
2017-03-04T11:24:09.411Z,25.66
2017-03-04T11:25:09.444Z,25.76
2017-03-04T11:26:09.490Z,25.85
2017-03-04T11:27:09.536Z,26.23
2017-03-04T11:28:09.557Z,26.45
2017-03-04T11:29:09.607Z,26.61
2017-03-04T11:30:09.683Z,26.59
2017-03-04T11:31:09.885Z,26.47
2017-03-04T11:32:09.698Z,26.35
2017-03-04T11:33:09.830Z,26.2
2017-03-04T11:34:09.791Z,25.84
2017-03-04T11:35:09.865Z,24.83
2017-03-04T11:36:09.829Z,24
2017-03-04T11:37:09.856Z,23.57
2017-03-04T11:38:10.030Z,23.26
2017-03-04T11:39:09.940Z,23.01
2017-03-04T11:40:09.962Z,22.89
2017-03-04T11:41:10.034Z,22.63
2017-03-04T11:42:10.072Z,22.6
2017-03-04T11:43:10.205Z,22.52
2017-03-04T11:44:10.129Z,22.54
2017-03-04T11:45:10.152Z,23.04
2017-03-04T11:46:10.179Z,23.18
2017-03-04T11:47:10.253Z,23.32
2017-03-04T11:48:10.264Z,23.26
2017-03-04T11:49:10.324Z,23.38
2017-03-04T11:50:10.387Z,23.15
2017-03-04T11:51:10.384Z,23.01
2017-03-04T11:52:10.438Z,23.14
2017-03-04T11:53:10.459Z,23.07
2017-03-04T11:54:10.546Z,23.04
2017-03-04T11:55:10.530Z,22.91
2017-03-04T11:56:10.542Z,22.46
2017-03-04T11:57:10.623Z,21.85
2017-03-04T11:58:10.629Z,21.62
2017-03-04T11:59:10.697Z,21.76
2017-03-04T12:00:10.890Z,21.85
2017-03-04T12:01:10.741Z,21.74
2017-03-04T12:02:10.748Z,21.66
2017-03-04T12:03:10.834Z,21.33
2017-03-04T12:04:10.839Z,21.08
2017-03-04T12:05:10.899Z,20.72
2017-03-04T12:06:10.931Z,20.44
2017-03-04T12:07:10.962Z,20.35
2017-03-04T12:08:11.016Z,20.04
2017-03-04T12:09:11.036Z,20.04
2017-03-04T12:10:11.047Z,20.04
2017-03-04T12:11:11.109Z,19.83
2017-03-04T12:12:11.142Z,19.74
2017-03-04T12:13:11.160Z,19.49
2017-03-04T12:14:11.231Z,19.02
2017-03-04T12:15:11.259Z,18.89
2017-03-04T12:16:11.308Z,18.57
2017-03-04T12:17:11.320Z,18.29
2017-03-04T12:18:11.358Z,17.83
2017-03-04T12:19:11.391Z,17.5
2017-03-04T12:20:11.445Z,17.35
2017-03-04T12:21:11.482Z,17.06
2017-03-04T12:22:11.517Z,16.87
2017-03-04T12:23:11.529Z,16.85
2017-03-04T12:24:11.674Z,16.65
2017-03-04T12:25:11.613Z,16.49
2017-03-04T12:26:11.615Z,16.42
2017-03-04T12:27:11.685Z,16.36
2017-03-04T12:28:11.728Z,16.22
2017-03-04T12:29:11.835Z,16.16
2017-03-04T12:30:11.787Z,16.11
2017-03-04T12:31:11.825Z,15.99
2017-03-04T12:32:11.859Z,16.04
2017-03-04T12:33:11.881Z,15.99
2017-03-04T12:34:12.036Z,15.96
2017-03-04T12:35:11.955Z,15.92
2017-03-04T12:36:11.983Z,15.93
2017-03-04T12:37:12.028Z,15.91
2017-03-04T12:38:12.024Z,15.99
2017-03-04T12:39:12.094Z,15.96
2017-03-04T12:40:12.138Z,15.95
2017-03-04T12:41:12.158Z,15.95
2017-03-04T12:42:12.200Z,15.98
2017-03-04T12:43:12.231Z,15.95
2017-03-04T12:44:12.291Z,15.92
2017-03-04T12:45:12.342Z,15.89
2017-03-04T12:46:12.346Z,15.83
2017-03-04T12:47:12.355Z,15.88
2017-03-04T12:48:12.399Z,15.91
2017-03-04T12:49:12.462Z,15.88
2017-03-04T12:50:12.496Z,15.92
2017-03-04T12:51:12.512Z,15.95
2017-03-04T12:52:12.571Z,15.93
2017-03-04T12:53:12.556Z,15.99
2017-03-04T12:54:12.634Z,15.99
2017-03-04T12:55:12.634Z,15.98
2017-03-04T12:56:12.714Z,15.95
2017-03-04T12:57:12.738Z,16.04
2017-03-04T12:58:12.735Z,15.95
2017-03-04T12:59:12.797Z,15.95
2017-03-04T13:00:12.833Z,15.96
2017-03-04T13:01:12.870Z,15.96
2017-03-04T13:02:12.896Z,15.96
2017-03-04T13:03:12.926Z,15.96
2017-03-04T13:04:12.953Z,15.98
2017-03-04T13:05:12.981Z,15.92
2017-03-04T13:06:13.028Z,15.96
2017-03-04T13:07:13.045Z,16
2017-03-04T13:08:13.207Z,16.1
2017-03-04T13:09:13.146Z,15.98
2017-03-04T13:10:13.198Z,16.02
2017-03-04T13:11:13.227Z,15.99